Time;durP1;ratioP1;P1;durP2;ratioP2;P2;SDS_P1;SDS_P2;PMS_P1;PMS_P2;Temp;Humidity;BMP_temperature;BMP_pressure;BME280_temperature;BME280_humidity;BME280_pressure;Samples;Min_cycle;Max_cycle;Signal;HPM_P1;HPM_P2
2022/04/07 00:00:49;;;;;;;0.00;0.00;;;;;;;12.23;51.00;96395.91;6096258;23;20016;-87
2022/04/07 00:03:15;;;;;;;0.00;0.00;;;;;;;12.22;51.27;96394.19;6096327;23;20343;-87
2022/04/07 00:05:41;;;;;;;0.00;0.00;;;;;;;11.96;51.62;96371.50;6096298;23;20032;-87
2022/04/07 00:08:07;;;;;;;0.00;0.00;;;;;;;12.10;51.82;96387.22;6096228;23;20084;-87
2022/04/07 00:10:35;;;;;;;0.00;0.00;;;;;;;11.99;52.35;96376.59;6096380;23;20002;-87
2022/04/07 00:13:01;;;;;;;0.00;0.00;;;;;;;12.02;51.99;96367.44;6096404;23;20010;-87
2022/04/07 00:15:27;;;;;;;0.00;0.00;;;;;;;12.02;51.80;96360.25;6097086;23;20034;-87
2022/04/07 00:17:52;;;;;;;0.00;0.00;;;;;;;12.05;51.83;96345.72;6096352;23;20017;-87
2022/04/07 00:20:18;;;;;;;0.45;0.45;;;;;;;12.06;51.84;96334.84;6096280;23;20036;-87
2022/04/07 00:22:44;;;;;;;0.00;0.00;;;;;;;11.94;52.04;96341.28;6096315;23;20002;-87
2022/04/07 00:25:10;;;;;;;0.00;0.00;;;;;;;12.01;52.58;96347.81;6095876;23;20362;-87
2022/04/07 00:27:36;;;;;;;0.40;0.30;;;;;;;11.99;51.46;96338.22;6096336;23;20085;-87
2022/04/07 00:30:03;;;;;;;0.00;0.00;;;;;;;12.04;51.40;96334.16;6096188;23;20018;-88
2022/04/07 00:32:29;;;;;;;0.00;0.00;;;;;;;12.06;50.80;96342.06;6120631;23;20080;-87
2022/04/07 00:34:54;;;;;;;0.22;0.22;;;;;;;12.10;50.91;96330.06;6096328;23;20018;-88
2022/04/07 00:37:24;;;;;;;0.00;0.00;;;;;;;12.10;51.34;96322.88;6096305;23;20511;-87
2022/04/07 00:39:50;;;;;;;0.10;0.10;;;;;;;12.04;52.19;96320.75;6096684;23;20012;-87
2022/04/07 00:42:16;;;;;;;0.00;0.00;;;;;;;12.01;52.86;96320.16;6094943;23;20490;-88
2022/04/07 00:44:43;;;;;;;0.00;0.00;;;;;;;11.87;53.01;96307.97;6120612;23;20036;-87
2022/04/07 00:47:09;;;;;;;0.00;0.00;;;;;;;11.97;52.82;96314.22;6096516;23;20008;-87
2022/04/07 00:49:35;;;;;;;0.00;0.00;;;;;;;11.81;53.46;96303.16;6096092;23;20002;-86
2022/04/07 00:52:01;;;;;;;0.00;0.00;;;;;;;11.72;52.51;96283.34;6097001;23;20417;-86
2022/04/07 00:54:26;;;;;;;0.00;0.00;;;;;;;11.79;53.71;96294.38;6120574;23;20350;-87
2022/04/07 00:56:54;;;;;;;0.00;0.00;;;;;;;11.86;52.57;96303.59;6095625;23;20006;-87
2022/04/07 00:59:22;;;;;;;0.10;0.10;;;;;;;11.79;52.43;96278.31;6094925;23;20048;-86
2022/04/07 01:01:48;;;;;;;0.00;0.00;;;;;;;11.80;53.87;96274.66;6095933;23;20414;-88
2022/04/07 01:04:13;;;;;;;0.00;0.00;;;;;;;11.78;53.80;96293.53;6095907;23;20013;-87
2022/04/07 01:06:41;;;;;;;0.22;0.15;;;;;;;11.73;53.77;96281.53;6095522;23;20409;-87
2022/04/07 01:09:07;;;;;;;0.08;0.08;;;;;;;11.53;54.02;96274.34;6095495;23;20028;-88
2022/04/07 01:11:34;;;;;;;0.00;0.00;;;;;;;11.59;54.25;96284.53;6095884;23;19997;-87
2022/04/07 01:14:29;;;;;;;0.50;0.50;;;;;;;11.53;55.07;96287.72;6095895;23;20009;-87
2022/04/07 01:16:55;;;;;;;0.10;0.10;;;;;;;11.37;54.80;96251.56;6120275;23;20010;-87
2022/04/07 01:19:20;;;;;;;0.00;0.00;;;;;;;11.53;54.91;96269.84;6095968;23;20013;-87
2022/04/07 01:21:46;;;;;;;0.10;0.10;;;;;;;11.39;55.04;96267.47;6096183;23;20010;-87
2022/04/07 01:24:13;;;;;;;0.10;0.10;;;;;;;11.41;55.02;96247.63;6095002;23;20224;-88
2022/04/07 01:26:43;;;;;;;0.00;0.00;;;;;;;11.43;54.86;96234.97;6096378;23;20458;-87
2022/04/07 01:29:14;;;;;;;0.00;0.00;;;;;;;11.63;54.30;96235.09;6096206;23;20031;-87
2022/04/07 01:31:40;;;;;;;0.50;0.50;;;;;;;11.57;54.39;96223.06;6095880;23;20418;-87
2022/04/07 01:34:10;;;;;;;0.10;0.10;;;;;;;11.35;55.51;96213.34;6095760;23;20037;-87
2022/04/07 01:36:41;;;;;;;2.15;1.95;;;;;;;11.29;55.67;96216.56;6095930;23;20002;-88
2022/04/07 01:39:10;;;;;;;0.03;0.03;;;;;;;11.32;55.49;96221.66;6120389;23;20026;-87
2022/04/07 01:41:39;;;;;;;0.00;0.00;;;;;;;11.43;55.13;96215.38;6096286;23;20033;-87
2022/04/07 01:44:05;;;;;;;0.10;0.10;;;;;;;11.49;54.41;96200.59;6095517;23;20067;-87
2022/04/07 01:46:32;;;;;;;0.10;0.10;;;;;;;11.46;54.96;96192.84;6096055;23;20039;-87
2022/04/07 01:48:58;;;;;;;0.00;0.00;;;;;;;11.40;55.21;96187.06;6095977;23;20036;-87
2022/04/07 01:51:24;;;;;;;0.57;0.57;;;;;;;11.52;54.84;96189.63;6096040;23;20016;-87
2022/04/07 01:53:51;;;;;;;0.10;0.10;;;;;;;11.56;54.05;96180.34;6095815;23;20457;-87
2022/04/07 01:56:18;;;;;;;0.20;0.20;;;;;;;11.52;54.11;96169.06;6095902;23;20032;-87
2022/04/07 01:58:45;;;;;;;0.10;0.10;;;;;;;11.57;53.75;96155.25;6095960;23;20028;-86
2022/04/07 02:01:53;;;;;;;0.10;0.10;;;;;;;11.43;53.93;96132.38;6119518;23;20009;-87
2022/04/07 02:04:23;;;;;;;0.00;0.00;;;;;;;11.59;53.84;96167.53;6113163;23;20097;-88
2022/04/07 02:06:48;;;;;;;0.00;0.00;;;;;;;11.58;53.82;96141.75;6095565;23;20012;-87
2022/04/07 02:09:14;;;;;;;1.30;1.00;;;;;;;11.64;53.68;96138.53;6095717;23;20350;-87
2022/04/07 02:11:41;;;;;;;0.00;0.00;;;;;;;11.74;53.81;96152.84;6095565;23;20071;-87
2022/04/07 02:14:06;;;;;;;0.10;0.10;;;;;;;11.43;54.30;96111.81;6095504;23;20025;-87
2022/04/07 02:16:32;;;;;;;0.00;0.00;;;;;;;11.46;54.48;96109.84;6095525;23;20002;-88
2022/04/07 02:18:58;;;;;;;0.10;0.10;;;;;;;11.21;55.64;96114.69;6096119;23;20006;-88
2022/04/07 02:21:23;;;;;;;0.00;0.00;;;;;;;11.40;55.31;96144.22;6119978;23;20461;-88
2022/04/07 02:23:49;;;;;;;0.35;0.35;;;;;;;11.31;55.65;96126.28;6095866;23;20014;-88
2022/04/07 02:26:16;;;;;;;0.08;0.08;;;;;;;11.31;55.94;96122.75;6095386;23;20361;-87
2022/04/07 02:28:42;;;;;;;0.00;0.00;;;;;;;11.38;55.94;96110.53;6095256;23;20006;-88
2022/04/07 02:31:08;;;;;;;0.30;0.30;;;;;;;11.37;56.43;96109.69;6096031;23;20449;-87
2022/04/07 02:33:34;;;;;;;0.10;0.10;;;;;;;11.38;55.93;96092.63;6095241;23;20026;-87
2022/04/07 02:36:01;;;;;;;0.00;0.00;;;;;;;11.43;55.61;96090.41;6095943;23;20009;-87
2022/04/07 02:38:27;;;;;;;0.00;0.00;;;;;;;11.51;55.45;96095.06;6095111;23;20069;-87
2022/04/07 02:40:53;;;;;;;0.00;0.00;;;;;;;11.53;55.85;96097.63;6096934;23;20052;-87
2022/04/07 02:43:18;;;;;;;0.65;0.40;;;;;;;11.48;55.60;96089.13;6097996;23;20020;-87
2022/04/07 02:45:44;;;;;;;0.00;0.00;;;;;;;11.63;55.14;96095.81;6098901;23;20010;-88
2022/04/07 02:48:09;;;;;;;0.00;0.00;;;;;;;11.82;53.62;96091.38;6096653;23;20381;-88
2022/04/07 02:50:35;;;;;;;1.77;0.70;;;;;;;12.07;52.35;96078.41;6096605;23;20143;-88
2022/04/07 02:53:01;;;;;;;0.00;0.00;;;;;;;12.18;51.68;96041.59;6097337;23;20005;-88
2022/04/07 02:55:27;;;;;;;0.82;0.30;;;;;;;12.57;50.45;96049.59;6098391;23;20038;-87
2022/04/07 02:57:53;;;;;;;0.70;0.47;;;;;;;13.24;48.45;96025.28;6097967;23;20060;-87
2022/04/07 03:00:22;;;;;;;1.92;1.13;;;;;;;13.55;47.39;96014.06;6099142;23;20442;-87
2022/04/07 03:02:47;;;;;;;0.25;0.25;;;;;;;13.76;47.04;96010.25;6121062;23;20378;-87
2022/04/07 03:05:13;;;;;;;0.73;0.73;;;;;;;13.94;46.36;95998.50;6097997;23;20006;-87
2022/04/07 03:08:15;;;;;;;0.13;0.13;;;;;;;14.16;46.21;96017.88;6097030;23;20009;-86
2022/04/07 03:10:41;;;;;;;0.00;0.00;;;;;;;13.96;47.34;96019.88;6097312;23;20005;-87
2022/04/07 03:13:06;;;;;;;0.03;0.03;;;;;;;13.71;48.56;96023.31;6098848;23;20013;-87
2022/04/07 03:15:32;;;;;;;0.00;0.00;;;;;;;13.53;48.07;96040.22;6099332;23;20041;-87
2022/04/07 03:18:01;;;;;;;0.00;0.00;;;;;;;13.40;48.03;96047.81;6097067;23;20525;-87
2022/04/07 03:20:26;;;;;;;0.93;0.77;;;;;;;13.09;48.56;96046.41;6097136;23;20014;-87
2022/04/07 03:22:52;;;;;;;0.80;0.70;;;;;;;13.24;47.92;96023.44;6096561;23;20010;-88
2022/04/07 03:25:18;;;;;;;0.00;0.00;;;;;;;13.68;47.56;96018.25;6097298;23;20408;-88
2022/04/07 03:27:43;;;;;;;2.47;1.75;;;;;;;13.91;47.02;96032.91;6096970;23;20040;-86
2022/04/07 03:30:09;;;;;;;3.60;0.63;;;;;;;13.88;46.67;95985.69;6098178;23;20006;-88
2022/04/07 03:32:42;;;;;;;0.80;0.65;;;;;;;13.97;46.57;95994.66;6095513;23;20006;-86
2022/04/07 03:35:08;;;;;;;1.33;0.93;;;;;;;13.91;46.43;95968.41;6096500;23;20021;-88
2022/04/07 03:37:33;;;;;;;3.60;1.70;;;;;;;13.83;47.30;95996.06;6097176;23;20542;-88
2022/04/07 03:39:59;;;;;;;1.52;0.93;;;;;;;13.76;46.85;96003.03;6097522;23;20010;-88
2022/04/07 03:42:25;;;;;;;0.00;0.00;;;;;;;13.93;46.87;96002.22;6098560;23;20567;-88
2022/04/07 03:44:50;;;;;;;7.22;1.42;;;;;;;13.89;46.68;95994.59;6096974;23;20006;-87
2022/04/07 03:47:16;;;;;;;0.30;0.30;;;;;;;14.05;46.00;95994.75;6120539;22;20556;-87
2022/04/07 03:49:41;;;;;;;0.88;0.68;;;;;;;13.89;46.46;95965.03;6097370;23;20475;-88
2022/04/07 03:52:08;;;;;;;0.05;0.05;;;;;;;13.75;46.68;95957.53;6096871;23;20013;-87
2022/04/07 03:54:33;;;;;;;1.10;0.57;;;;;;;13.79;46.79;95953.50;6096896;23;20031;-87
2022/04/07 03:56:59;;;;;;;1.45;0.95;;;;;;;13.80;47.06;95965.97;6096668;23;20041;-87
2022/04/07 03:59:25;;;;;;;0.00;0.00;;;;;;;13.76;47.27;95948.44;6095806;23;20063;-87
2022/04/07 04:01:50;;;;;;;1.38;1.02;;;;;;;13.72;47.08;95945.22;6096373;23;20082;-87
2022/04/07 04:04:17;;;;;;;0.00;0.00;;;;;;;13.83;46.93;95949.53;6096572;23;20037;-88
2022/04/07 04:06:43;;;;;;;0.20;0.20;;;;;;;13.85;46.82;95952.91;6096758;23;20077;-88
2022/04/07 04:09:08;;;;;;;0.00;0.00;;;;;;;13.76;46.77;95951.13;6101352;23;20010;-88
2022/04/07 04:11:34;;;;;;;0.88;0.80;;;;;;;13.73;46.79;95954.13;6098053;23;20290;-89
2022/04/07 04:14:00;;;;;;;3.33;1.17;;;;;;;13.67;46.56;95947.53;6101879;23;20037;-88
2022/04/07 04:16:37;;;;;;;0.00;0.00;;;;;;;13.50;46.81;95914.28;6104404;23;20005;-88
2022/04/07 04:19:13;;;;;;;4.75;0.65;;;;;;;13.59;46.40;95891.03;6122438;23;20006;-88
2022/04/07 04:22:11;;;;;;;0.85;0.80;;;;;;;14.10;45.80;95952.97;6122967;23;20017;-88
2022/04/07 04:24:37;;;;;;;1.55;0.63;;;;;;;14.05;46.17;95920.34;6131545;23;20012;-89
2022/04/07 04:27:03;;;;;;;0.00;0.00;;;;;;;14.22;45.84;95929.34;6097616;23;20001;-89
2022/04/07 04:29:28;;;;;;;0.77;0.77;;;;;;;14.22;45.51;95913.22;6096671;23;20338;-89
2022/04/07 04:31:54;;;;;;;0.00;0.00;;;;;;;14.28;45.39;95896.44;6096983;23;20032;-89
2022/04/07 04:34:19;;;;;;;0.03;0.03;;;;;;;14.48;45.51;95906.03;6096371;23;20018;-87
2022/04/07 04:37:14;;;;;;;0.22;0.22;;;;;;;14.73;44.90;95908.88;6096795;23;20009;-89
2022/04/07 04:39:39;;;;;;;19.83;1.40;;;;;;;14.50;44.74;95878.97;6122587;22;20067;-76
2022/04/07 04:42:05;;;;;;;0.10;0.10;;;;;;;14.74;44.86;95923.97;6123391;23;20006;-84
2022/04/07 04:44:31;;;;;;;3.33;2.25;;;;;;;14.74;45.08;95932.06;6097074;23;20048;-83
2022/04/07 04:46:57;;;;;;;0.00;0.00;;;;;;;14.63;45.79;95938.56;6097537;23;20006;-83
2022/04/07 04:49:22;;;;;;;5.22;4.85;;;;;;;14.53;46.65;95946.75;6125524;23;20009;-85
2022/04/07 04:51:48;;;;;;;0.00;0.00;;;;;;;14.36;46.80;95931.53;6131297;23;20143;-84
2022/04/07 04:54:14;;;;;;;0.00;0.00;;;;;;;14.23;47.33;95925.66;6100783;23;20006;-85
2022/04/07 04:57:00;;;;;;;0.47;0.47;;;;;;;14.50;45.59;95930.06;6099343;23;20006;-85
2022/04/07 04:59:25;;;;;;;0.15;0.15;;;;;;;14.59;44.79;95932.66;6098081;23;20022;-86
2022/04/07 05:01:51;;;;;;;4.13;3.83;;;;;;;14.75;44.46;95936.44;6099747;23;20514;-86
2022/04/07 05:04:17;;;;;;;1.55;0.90;;;;;;;14.77;44.17;95926.34;6124201;23;20026;-89
2022/04/07 05:06:42;;;;;;;0.77;0.77;;;;;;;14.78;44.26;95926.22;6102001;23;20472;-90
2022/04/07 05:09:08;;;;;;;2.42;1.00;;;;;;;14.83;44.05;95923.88;6098883;23;20085;-90
2022/04/07 05:11:34;;;;;;;1.67;1.35;;;;;;;14.58;44.51;95908.63;6098176;23;20420;-88
2022/04/07 05:14:00;;;;;;;0.65;0.65;;;;;;;14.64;44.55;95930.31;6123948;23;20005;-88
2022/04/07 05:16:26;;;;;;;0.95;0.85;;;;;;;14.59;44.19;95924.59;6100214;23;20013;-89
2022/04/07 05:18:52;;;;;;;0.10;0.10;;;;;;;14.60;44.14;95926.28;6098620;23;20006;-88
2022/04/07 05:21:17;;;;;;;1.35;0.52;;;;;;;14.61;44.73;95929.84;6100276;23;20013;-88
2022/04/07 05:24:04;;;;;;;3.47;3.20;;;;;;;14.50;45.01;95911.25;6101810;23;20084;-89
2022/04/07 05:26:32;;;;;;;4.82;0.63;;;;;;;14.36;44.78;95899.25;6099433;23;20006;-88
2022/04/07 05:28:58;;;;;;;0.50;0.50;;;;;;;14.22;44.98;95897.09;6123754;23;20006;-89
2022/04/07 05:31:24;;;;;;;2.05;1.58;;;;;;;14.32;44.41;95878.16;6098026;23;20017;-87
2022/04/07 05:33:49;;;;;;;0.15;0.15;;;;;;;14.40;44.14;95876.38;6099249;23;20053;-91
2022/04/07 05:36:16;;;;;;;1.92;1.83;;;;;;;14.56;44.38;95879.16;6097995;23;20010;-87
2022/04/07 05:38:42;;;;;;;5.47;1.77;;;;;;;14.54;44.51;95869.56;6099066;23;20029;-88
2022/04/07 05:41:08;;;;;;;3.50;1.73;;;;;;;14.48;44.67;95876.44;6097974;23;20471;-87
2022/04/07 05:43:33;;;;;;;0.85;0.85;;;;;;;14.67;44.67;95901.44;6096782;23;20013;-91
2022/04/07 05:46:01;;;;;;;2.65;1.35;;;;;;;14.86;44.49;95914.66;6097773;23;20002;-90
2022/04/07 05:48:28;;;;;;;1.05;0.88;;;;;;;14.88;44.92;95899.16;6098694;23;20040;-90
2022/04/07 05:50:58;;;;;;;0.52;0.52;;;;;;;15.04;44.38;95878.53;6096928;23;20010;-89
2022/04/07 05:53:30;;;;;;;6.47;0.98;;;;;;;15.02;44.26;95860.84;6097460;23;20013;-88
2022/04/07 05:55:58;;;;;;;3.42;1.60;;;;;;;15.45;43.66;95873.25;6097043;23;20010;-90
2022/04/07 05:58:28;;;;;;;1.65;0.63;;;;;;;15.66;43.06;95866.41;6098121;23;20013;-88
2022/04/07 06:00:54;;;;;;;4.85;2.95;;;;;;;16.28;41.71;95869.41;6098257;23;20438;-87
2022/04/07 06:03:19;;;;;;;2.28;1.50;;;;;;;16.31;41.63;95854.72;6097608;23;20006;-86
2022/04/07 06:05:45;;;;;;;2.92;1.20;;;;;;;16.55;40.76;95857.41;6097620;23;20020;-89
2022/04/07 06:08:10;;;;;;;0.38;0.38;;;;;;;16.48;41.03;95856.38;6097010;23;20023;-87
2022/04/07 06:10:37;;;;;;;0.00;0.00;;;;;;;16.27;41.50;95825.38;6121354;23;20012;-88
2022/04/07 06:13:03;;;;;;;1.63;1.15;;;;;;;16.13;41.64;95849.53;6098040;23;20113;-89
2022/04/07 06:15:30;;;;;;;2.47;1.42;;;;;;;15.58;42.88;95858.31;6101912;23;20010;-88
2022/04/07 06:17:59;;;;;;;1.00;0.77;;;;;;;15.41;43.24;95856.56;6096964;23;20002;-88
2022/04/07 06:20:25;;;;;;;2.08;1.63;;;;;;;15.25;43.11;95848.47;6097311;23;20010;-88
2022/04/07 06:22:50;;;;;;;2.00;1.00;;;;;;;15.05;43.40;95858.66;6096592;23;20006;-89
2022/04/07 06:25:17;;;;;;;0.55;0.55;;;;;;;15.07;43.68;95866.59;6122378;22;20099;-86
2022/04/07 06:27:47;;;;;;;1.13;0.90;;;;;;;15.02;43.93;95858.16;6100120;23;20093;-87
2022/04/07 06:30:16;;;;;;;2.78;1.70;;;;;;;14.96;44.09;95858.81;6098798;23;20013;-88
2022/04/07 06:32:42;;;;;;;1.17;0.90;;;;;;;14.81;44.14;95844.28;6099836;23;20010;-89
2022/04/07 06:35:09;;;;;;;9.55;2.75;;;;;;;14.91;44.15;95871.94;6123377;23;20037;-89
2022/04/07 06:37:51;;;;;;;2.42;1.17;;;;;;;14.78;44.13;95850.84;6099383;23;20052;-89
2022/04/07 06:40:19;;;;;;;0.73;0.73;;;;;;;14.97;43.97;95855.13;6099663;23;20013;-88
2022/04/07 06:42:45;;;;;;;1.42;1.08;;;;;;;15.23;43.32;95842.38;6100875;23;20012;-88
2022/04/07 06:45:10;;;;;;;0.75;0.63;;;;;;;15.19;43.28;95832.97;6126438;23;20021;-87
2022/04/07 06:47:39;;;;;;;7.05;2.10;;;;;;;15.02;43.78;95815.06;6102206;23;20013;-89
2022/04/07 06:50:14;;;;;;;4.68;0.80;;;;;;;15.11;44.36;95855.31;6124746;23;20048;-89
2022/04/07 06:52:41;;;;;;;4.07;1.67;;;;;;;14.94;44.11;95855.44;6099443;23;20037;-89
2022/04/07 06:55:07;;;;;;;1.60;1.10;;;;;;;14.85;44.83;95867.19;6097775;23;20002;-88
2022/04/07 06:57:52;;;;;;;2.92;1.90;;;;;;;14.43;44.99;95830.34;6099029;23;20006;-90
2022/04/07 07:00:27;;;;;;;5.47;1.52;;;;;;;14.43;45.15;95862.63;6121906;22;20013;-89
2022/04/07 07:02:54;;;;;;;0.90;0.80;;;;;;;14.25;45.54;95869.88;6099001;23;20017;-89
2022/04/07 07:05:58;;;;;;;4.57;1.00;;;;;;;14.36;45.35;95880.41;6117424;23;20028;-90
2022/04/07 07:08:32;;;;;;;1.23;0.88;;;;;;;14.17;45.22;95808.00;6123773;23;20029;-89
2022/04/07 07:10:58;;;;;;;0.93;0.45;;;;;;;14.52;44.67;95845.50;6098148;23;20006;-88
2022/04/07 07:16:28;;;;;;;0.90;0.52;;;;;;;14.63;44.06;95830.94;6167715;23;20124;-90
2022/04/07 07:18:54;;;;;;;1.58;1.35;;;;;;;14.99;44.13;95861.16;6099080;23;20085;-90
2022/04/07 07:21:20;;;;;;;1.13;0.85;;;;;;;14.99;43.79;95843.19;6101526;23;20017;-91
2022/04/07 07:23:46;;;;;;;1.95;1.35;;;;;;;15.28;43.55;95882.31;6100777;23;20115;-89
2022/04/07 07:26:13;;;;;;;0.93;0.35;;;;;;;15.16;43.85;95854.84;6100597;23;20073;-91
2022/04/07 07:28:38;;;;;;;0.88;0.82;;;;;;;15.38;43.46;95878.44;6126021;23;20092;-89
2022/04/07 07:31:05;;;;;;;3.15;1.80;;;;;;;15.46;43.14;95864.16;6100386;23;20041;-90
2022/04/07 07:33:30;;;;;;;5.00;2.10;;;;;;;15.66;43.18;95877.19;6101450;23;20017;-89
2022/04/07 07:35:56;;;;;;;1.70;1.10;;;;;;;15.38;43.45;95875.75;6101229;23;20413;-90
2022/04/07 07:38:22;;;;;;;2.22;1.90;;;;;;;15.39;43.67;95890.91;6101416;23;20472;-88
2022/04/07 07:41:31;;;;;;;0.80;0.73;;;;;;;15.15;43.61;95820.84;6099769;23;20522;-88
2022/04/07 07:44:27;;;;;;;0.22;0.22;;;;;;;15.60;43.45;95891.31;6100169;23;20006;-88
2022/04/07 07:47:04;;;;;;;0.10;0.08;;;;;;;15.71;43.29;95877.53;6082635;23;20442;-88
2022/04/07 07:49:30;;;;;;;2.08;1.17;;;;;;;15.36;43.70;95866.16;6100412;23;20013;-88
2022/04/07 07:55:19;;;;;;;0.93;0.93;;;;;;;15.24;44.12;95862.94;6126773;23;20013;-90
2022/04/07 07:57:49;;;;;;;0.50;0.50;;;;;;;15.59;44.07;95894.19;6102542;23;20016;-90
2022/04/07 08:00:23;;;;;;;0.10;0.10;;;;;;;15.63;43.68;95847.00;6100393;23;20010;-91
2022/04/07 08:02:49;;;;;;;5.75;1.35;;;;;;;16.09;42.73;95875.16;6102722;23;20071;-90
2022/04/07 08:05:21;;;;;;;6.72;2.50;;;;;;;15.82;43.44;95872.81;6101874;23;20456;-89
2022/04/07 08:07:46;;;;;;;2.13;1.30;;;;;;;15.93;42.66;95834.72;6097396;23;20034;-89
2022/04/07 08:10:12;;;;;;;0.40;0.40;;;;;;;16.38;42.25;95847.63;6097988;23;20003;-88
2022/04/07 08:12:39;;;;;;;8.00;0.95;;;;;;;16.67;41.49;95862.25;6097826;23;20069;-87
2022/04/07 08:15:05;;;;;;;1.80;1.23;;;;;;;16.69;41.52;95852.13;6098202;23;20038;-89
2022/04/07 08:17:31;;;;;;;1.20;1.10;;;;;;;16.66;41.82;95865.13;6102520;23;20009;-89
2022/04/07 08:19:57;;;;;;;0.80;0.50;;;;;;;16.57;41.81;95831.09;6101416;23;20430;-88
2022/04/07 08:22:46;;;;;;;7.97;1.60;;;;;;;16.80;41.23;95837.41;6099824;23;20030;-89
2022/04/07 08:28:40;;;;;;;2.35;1.27;;;;;;;16.75;41.25;95800.13;6127858;23;20063;-87
2022/04/07 08:31:17;;;;;;;3.35;1.50;;;;;;;17.45;40.60;95842.44;6106258;23;20010;-90
2022/04/07 08:33:43;;;;;;;0.20;0.20;;;;;;;17.54;40.28;95819.75;6101372;23;20516;-88
2022/04/07 08:36:08;;;;;;;1.13;0.65;;;;;;;17.51;40.05;95804.72;6100991;23;20014;-89
2022/04/07 08:38:34;;;;;;;0.43;0.43;;;;;;;17.73;40.13;95830.97;6099514;23;20010;-90
2022/04/07 08:41:06;;;;;;;0.43;0.43;;;;;;;17.62;39.72;95766.50;6101898;23;20457;-88
2022/04/07 08:43:33;;;;;;;1.27;0.77;;;;;;;17.98;39.21;95780.19;6123348;23;20009;-87
2022/04/07 08:45:59;;;;;;;1.50;0.98;;;;;;;17.61;39.79;95805.38;6099575;23;20469;-87
2022/04/07 08:52:08;;;;;;;7.22;1.42;;;;;;;17.18;40.61;95770.84;6145286;23;20005;-88
2022/04/07 08:54:49;;;;;;;0.65;0.65;;;;;;;17.26;41.04;95811.31;6099388;23;20002;-88
2022/04/07 08:57:15;;;;;;;2.53;1.45;;;;;;;16.87;41.18;95767.31;6094876;23;20028;-89
2022/04/07 08:59:41;;;;;;;0.77;0.77;;;;;;;16.96;41.54;95799.53;6124239;23;20426;-88
2022/04/07 09:02:11;;;;;;;0.80;0.80;;;;;;;16.91;41.90;95803.78;6100938;23;20005;-90
2022/04/07 09:04:40;;;;;;;0.47;0.47;;;;;;;16.83;41.88;95790.31;6105709;23;20113;-89
2022/04/07 09:07:09;;;;;;;1.48;1.15;;;;;;;16.99;41.87;95809.97;6102881;23;20010;-89
2022/04/07 09:09:38;;;;;;;0.45;0.45;;;;;;;16.87;42.13;95797.88;6103732;23;20005;-89
2022/04/07 09:12:05;;;;;;;3.28;1.50;;;;;;;16.62;42.42;95796.31;6101675;23;20002;-91
2022/04/07 09:14:35;;;;;;;6.20;1.15;;;;;;;16.02;47.12;95798.66;6099304;23;20463;-88
2022/04/07 09:17:01;;;;;;;0.35;0.32;;;;;;;15.11;48.42;95800.63;6098332;23;20070;-88
2022/04/07 09:19:28;;;;;;;1.80;0.75;;;;;;;14.65;48.22;95781.31;6098985;23;20434;-88
2022/04/07 09:22:30;;;;;;;4.28;0.88;;;;;;;15.06;47.38;95802.97;6097656;23;20010;-89
2022/04/07 09:24:59;;;;;;;1.63;1.33;;;;;;;15.18;46.89;95790.88;6107155;23;20065;-88
2022/04/07 09:27:24;;;;;;;2.22;1.35;;;;;;;15.35;46.24;95800.66;6098209;23;20010;-88
2022/04/07 09:29:54;;;;;;;0.30;0.30;;;;;;;15.60;46.29;95820.41;6123391;23;20002;-89
2022/04/07 09:32:25;;;;;;;5.45;2.00;;;;;;;15.57;45.97;95805.41;6099282;23;20037;-88
2022/04/07 09:34:54;;;;;;;53.35;1.45;;;;;;;15.48;46.20;95798.34;6097261;23;20022;-88
2022/04/07 09:37:21;;;;;;;2.17;0.82;;;;;;;15.60;46.23;95804.22;6098722;23;20407;-88
2022/04/07 09:39:48;;;;;;;0.15;0.15;;;;;;;15.65;46.48;95808.13;6100267;23;20069;-88
2022/04/07 09:42:25;;;;;;;1.75;1.15;;;;;;;15.73;45.42;95783.84;6100696;23;20006;-89
2022/04/07 09:44:59;;;;;;;6.20;0.43;;;;;;;15.97;45.28;95765.94;6100389;23;20033;-88
2022/04/07 09:47:43;;;;;;;2.40;0.88;;;;;;;16.30;43.86;95775.66;6099103;23;20010;-89
2022/04/07 09:50:30;;;;;;;0.52;0.45;;;;;;;16.60;44.09;95796.50;6100847;23;20010;-88
2022/04/07 09:53:04;;;;;;;0.20;0.20;;;;;;;16.71;43.91;95801.50;6101619;23;20006;-89
2022/04/07 09:55:35;;;;;;;2.88;1.23;;;;;;;16.73;43.90;95826.44;6097609;23;20006;-87
2022/04/07 09:58:03;;;;;;;3.13;1.60;;;;;;;16.47;43.93;95814.22;6098486;23;20067;-88
2022/04/07 10:00:29;;;;;;;0.15;0.15;;;;;;;16.32;44.09;95835.69;6098660;23;20020;-87
2022/04/07 10:02:55;;;;;;;3.67;1.63;;;;;;;16.38;44.49;95867.38;6100139;23;20038;-89
2022/04/07 10:05:21;;;;;;;2.70;1.35;;;;;;;15.98;44.06;95800.00;6101706;23;20006;-87
2022/04/07 10:07:48;;;;;;;0.52;0.52;;;;;;;16.03;44.44;95832.69;6124157;23;20330;-90
2022/04/07 10:10:14;;;;;;;2.00;1.88;;;;;;;16.17;44.10;95840.94;6098826;23;20017;-90
2022/04/07 10:12:40;;;;;;;0.00;0.00;;;;;;;16.37;44.51;95837.84;6099121;23;20002;-88
2022/04/07 10:15:06;;;;;;;0.00;0.00;;;;;;;16.70;44.59;95859.19;6099252;23;20434;-90
2022/04/07 10:17:34;;;;;;;0.35;0.35;;;;;;;16.86;43.75;95833.19;6098221;23;20002;-89
2022/04/07 10:20:03;;;;;;;0.55;0.52;;;;;;;16.93;43.63;95858.44;6101385;23;20005;-89
2022/04/07 10:22:47;;;;;;;0.00;0.00;;;;;;;16.73;43.99;95861.53;6102034;23;20014;-89
2022/04/07 10:25:14;;;;;;;0.00;0.00;;;;;;;16.39;45.39;95860.13;6125711;22;20446;-87
2022/04/07 10:27:46;;;;;;;1.55;1.10;;;;;;;16.01;50.59;95894.03;6098058;23;20006;-89
2022/04/07 10:30:16;;;;;;;0.00;0.00;;;;;;;15.55;57.81;95936.81;6098772;23;20006;-89
2022/04/07 10:32:49;;;;;;;15.25;1.02;;;;;;;14.93;59.80;95939.91;6124454;23;20380;-90
2022/04/07 10:35:31;;;;;;;0.10;0.10;;;;;;;14.65;62.11;95968.84;6223341;23;20024;-90
2022/04/07 10:37:58;;;;;;;0.00;0.00;;;;;;;14.32;67.99;95957.00;6247677;22;20103;-90
2022/04/07 10:40:49;;;;;;;0.52;0.52;;;;;;;14.23;68.08;95925.66;6222745;23;20004;-90
2022/04/07 10:43:14;;;;;;;0.00;0.00;;;;;;;14.50;72.14;95946.22;6248420;22;20004;-91
2022/04/07 10:45:41;;;;;;;1.52;1.42;;;;;;;14.39;67.37;95920.44;6255818;22;20004;-90
2022/04/07 10:48:29;;;;;;;8.65;2.85;;;;;;;14.45;61.69;95909.03;6223659;23;20436;-90
2022/04/07 10:50:58;;;;;;;0.25;0.20;;;;;;;14.63;61.14;95922.44;6222829;23;20008;-92
2022/04/07 10:53:28;;;;;;;0.00;0.00;;;;;;;14.67;63.85;95923.81;6226941;23;20004;-91
2022/04/07 10:56:12;;;;;;;0.00;0.00;;;;;;;14.69;64.80;95955.94;6255764;23;20004;-91
2022/04/07 10:58:40;;;;;;;0.03;0.03;;;;;;;14.25;67.11;95945.16;6251137;22;20000;-90
2022/04/07 11:01:05;;;;;;;0.10;0.10;;;;;;;13.78;65.49;95924.97;6249747;22;20067;-90
2022/04/07 11:03:32;;;;;;;0.20;0.20;;;;;;;13.81;68.39;95941.59;6224166;23;20015;-90
2022/04/07 11:06:06;;;;;;;0.00;0.00;;;;;;;13.82;68.04;95931.72;6222384;23;20008;-89
2022/04/07 11:08:32;;;;;;;0.00;0.00;;;;;;;13.82;67.58;95921.81;6224287;23;20035;-91
2022/04/07 11:10:57;;;;;;;0.00;0.00;;;;;;;13.76;67.86;95943.06;6224224;23;20008;-90
2022/04/07 11:13:50;;;;;;;0.90;0.52;;;;;;;13.65;71.65;95941.47;6223944;23;20019;-90
2022/04/07 11:16:21;;;;;;;0.00;0.00;;;;;;;13.79;70.92;95953.50;6224575;23;20351;-89
2022/04/07 11:19:16;;;;;;;3.13;0.50;;;;;;;13.80;69.88;95939.94;6249385;22;20023;-88
2022/04/07 11:21:45;;;;;;;0.45;0.30;;;;;;;13.92;66.88;95948.59;6222969;23;20004;-90
2022/04/07 11:24:16;;;;;;;1.25;1.15;;;;;;;13.96;60.01;95933.88;6222213;23;20008;-91
2022/04/07 11:26:41;;;;;;;4.40;2.13;;;;;;;13.90;58.84;95911.16;6221755;23;20359;-90
2022/04/07 11:32:06;;;;;;;0.10;0.10;;;;;;;14.09;57.45;95910.09;6248939;23;20039;-88
2022/04/07 11:34:40;;;;;;;0.00;0.00;;;;;;;14.37;57.29;95932.34;6131702;23;20461;-90
2022/04/07 11:37:09;;;;;;;0.35;0.35;;;;;;;14.30;54.70;95882.84;6123382;22;20006;-90
2022/04/07 11:39:39;;;;;;;0.70;0.45;;;;;;;14.47;54.02;95890.03;6098489;23;20017;-91
2022/04/07 11:42:08;;;;;;;0.00;0.00;;;;;;;14.77;53.81;95919.13;6098840;23;20457;-90
2022/04/07 11:44:45;;;;;;;0.00;0.00;;;;;;;14.87;54.91;95897.47;6124728;23;20001;-92
2022/04/07 11:47:25;;;;;;;0.10;0.10;;;;;;;14.96;60.26;95928.81;6099419;23;20021;-90
2022/04/07 11:49:51;;;;;;;1.45;1.35;;;;;;;14.44;67.53;95942.31;6100798;23;20036;-90
2022/04/07 11:52:28;;;;;;;1.17;1.08;;;;;;;14.40;72.28;95938.25;6099429;23;20011;-90
2022/04/07 11:54:58;;;;;;;0.28;0.28;;;;;;;14.27;72.83;95945.88;6098386;23;20005;-89
2022/04/07 11:57:25;;;;;;;0.00;0.00;;;;;;;14.20;73.84;95928.69;6098353;23;20014;-90
2022/04/07 12:00:18;;;;;;;0.10;0.10;;;;;;;14.11;74.19;95940.38;6098488;23;20013;-90